Terminal Aerodrome Forecast
Issued by NWS Lake Charles, LA

Home | Current Version | Previous Version | Text Only | Print | Product List | Glossary On
Versions: 1 2 3 4 5 6 7 8 9 10 11 12 13 14 15 16 17 18 19
000
FTUS44 KLCH 250903 AAA
TAFARA
TAF AMD
KARA 250903Z 2509/2606 20010KT 3SM TSRA BKN014 OVC021CB
      TEMPO 2509/2513 VRB18G24KT 1SM +SHRA BKN006 OVC029
     FM251300 04006KT 5SM -SHRA VCTS SCT010 OVC022CB
     FM251800 07008KT P6SM -SHRA VCTS OVC015CB=

USA.gov is the U.S. government's official web portal to all federal, state and local government web resources and services.